Arlington, Maryland
Current Conditions -  °F | °C
As of 6:54 AM on Saturday 01 Nov 2014 (Local Time) from KBWI Reporting Station
Overcast Overcast  
Wind Chill: 45°   Ceiling: 2000
Heat Index: 49°   Visibility: 10mi
Dew Point: 42°   Wind: 8mph
Humidity: 77%   Direction: 360°N
Pressure: 29.77"   Gusts: NA
Location:  39.3453°N, 76.6832°W
Report Text: KBWI 011054Z 36007KT 290V030 10SM OVC020 09/06 A2977 RMK AO2 SLP083 T00940056 $
Loading
Personal Weather Stations






























Interactive Weather Map
Tropical Storm Tracking
New forecast layout! Learn more

10-Day Weather Forecast

Advertisements
Track Severe Weather on mobile